Time;durP1;ratioP1;P1;durP2;ratioP2;P2;SDS_P1;SDS_P2;PMS_P1;PMS_P2;Temp;Humidity;BMP_temperature;BMP_pressure;BME280_temperature;BME280_humidity;BME280_pressure;Samples;Min_cycle;Max_cycle;Signal;HPM_P1;HPM_P2
2021/12/31 00:00:10;;;;;;;10.80;1.10;;;12.80;99.90;;;;;;5056251;28;20473;-76
2021/12/31 00:02:36;;;;;;;8.98;1.35;;;12.90;99.90;;;;;;5073106;28;20044;-76
2021/12/31 00:05:03;;;;;;;5.72;0.90;;;12.80;99.90;;;;;;5072439;28;20067;-75
2021/12/31 00:07:29;;;;;;;6.28;1.10;;;12.90;99.90;;;;;;5072742;28;20040;-72
2021/12/31 00:09:59;;;;;;;6.32;0.85;;;12.80;99.90;;;;;;5055609;28;20047;-76
2021/12/31 00:12:26;;;;;;;6.90;0.80;;;12.90;99.90;;;;;;5073140;28;20055;-77
2021/12/31 00:14:52;;;;;;;7.85;0.95;;;12.90;99.90;;;;;;5072276;28;20082;-76
2021/12/31 00:17:17;;;;;;;6.20;1.20;;;12.90;99.90;;;;;;5073164;28;20137;-77
2021/12/31 00:19:45;;;;;;;5.63;0.90;;;12.90;99.90;;;;;;5072937;28;20055;-76
2021/12/31 00:24:49;;;;;;;8.65;1.45;;;12.90;99.90;;;;;;5072242;28;20144;-79
2021/12/31 00:27:14;;;;;;;7.80;1.15;;;12.90;99.90;;;;;;5072560;28;20086;-76
2021/12/31 00:29:40;;;;;;;9.85;1.77;;;12.90;99.90;;;;;;5055249;28;20484;-75
2021/12/31 00:32:06;;;;;;;7.32;0.98;;;12.90;99.90;;;;;;5073179;28;20040;-75
2021/12/31 00:34:31;;;;;;;8.07;1.30;;;12.90;99.90;;;;;;5055724;28;20052;-75
2021/12/31 00:36:57;;;;;;;6.72;1.10;;;12.90;99.90;;;;;;5072033;28;20044;-75
2021/12/31 00:39:22;;;;;;;8.32;1.17;;;12.90;99.90;;;;;;5072480;28;20040;-75
2021/12/31 00:41:48;;;;;;;8.73;1.50;;;12.90;99.90;;;;;;5056331;28;20048;-74
2021/12/31 00:44:14;;;;;;;6.10;1.25;;;12.90;99.90;;;;;;5071906;28;20047;-75
2021/12/31 00:46:40;;;;;;;7.05;1.00;;;12.90;99.90;;;;;;5055998;28;20492;-76
2021/12/31 00:49:06;;;;;;;7.82;1.50;;;12.90;99.90;;;;;;5055639;28;20052;-75
2021/12/31 00:51:33;;;;;;;9.90;1.40;;;13.00;99.90;;;;;;5072450;28;20048;-76
2021/12/31 00:53:59;;;;;;;9.00;1.38;;;13.00;99.90;;;;;;5075033;28;20085;-75
2021/12/31 00:56:24;;;;;;;9.38;1.17;;;13.00;99.90;;;;;;5076333;28;20105;-76
2021/12/31 00:58:50;;;;;;;8.90;1.08;;;13.00;99.90;;;;;;5075434;28;20484;-76
2021/12/31 01:01:19;;;;;;;11.30;1.17;;;13.00;99.90;;;;;;5076854;28;20067;-76
2021/12/31 01:03:47;;;;;;;6.82;1.45;;;13.00;99.90;;;;;;5058891;28;20040;-78
2021/12/31 01:06:13;;;;;;;12.43;1.33;;;13.00;99.90;;;;;;5059732;28;20036;-78
2021/12/31 01:08:39;;;;;;;10.23;1.10;;;13.00;99.90;;;;;;5076089;28;20043;-77
2021/12/31 01:11:05;;;;;;;7.82;1.00;;;13.00;99.90;;;;;;5076104;28;20495;-76
2021/12/31 01:13:57;;;;;;;7.80;1.15;;;13.10;99.90;;;;;;5059639;28;20039;-73
2021/12/31 01:16:19;;;;;;;6.90;1.17;;;13.10;99.90;;;;;;5075946;28;20423;-74
2021/12/31 01:21:18;;;;;;;8.95;1.38;;;13.10;99.90;;;;;;5076417;28;20072;-77
2021/12/31 01:23:43;;;;;;;6.30;1.08;;;13.10;99.90;;;;;;5075564;28;20062;-76
2021/12/31 01:26:09;;;;;;;5.38;0.95;;;13.10;99.90;;;;;;5075187;28;20123;-75
2021/12/31 01:28:36;;;;;;;7.38;1.08;;;13.10;99.90;;;;;;5075808;28;20427;-75
2021/12/31 01:31:02;;;;;;;8.85;1.38;;;13.10;99.90;;;;;;5076314;28;20052;-74
2021/12/31 01:33:28;;;;;;;8.80;1.10;;;13.10;99.90;;;;;;5044601;28;20396;-72
2021/12/31 01:35:53;;;;;;;11.80;1.13;;;13.00;99.90;;;;;;5094512;28;20036;-75
2021/12/31 01:38:20;;;;;;;8.27;1.02;;;13.00;99.90;;;;;;5075518;28;20044;-72
2021/12/31 01:40:45;;;;;;;4.78;0.57;;;13.00;99.90;;;;;;5075511;28;20089;-75
2021/12/31 01:43:12;;;;;;;6.82;1.10;;;13.00;99.90;;;;;;5075681;28;21789;-76
2021/12/31 01:45:44;;;;;;;5.32;1.10;;;13.00;99.90;;;;;;5076215;28;20475;-78
2021/12/31 01:48:23;;;;;;;5.38;0.68;;;13.00;99.90;;;;;;5057938;28;20038;-78
2021/12/31 01:50:51;;;;;;;5.43;0.70;;;13.10;99.90;;;;;;5059163;28;20102;-78
2021/12/31 01:53:18;;;;;;;7.15;0.98;;;13.10;99.90;;;;;;5057829;28;20055;-78
2021/12/31 01:55:44;;;;;;;7.32;1.17;;;13.10;99.90;;;;;;5059036;28;20389;-78
2021/12/31 01:58:12;;;;;;;7.40;0.90;;;13.20;99.90;;;;;;5075030;28;20101;-78
2021/12/31 02:00:38;;;;;;;7.38;1.05;;;13.10;99.90;;;;;;5075679;28;20400;-73
2021/12/31 02:03:05;;;;;;;6.05;1.13;;;13.10;99.90;;;;;;5075237;28;20492;-74
2021/12/31 02:05:31;;;;;;;5.95;0.82;;;13.10;99.90;;;;;;5075848;28;20074;-79
2021/12/31 02:08:00;;;;;;;7.20;1.27;;;13.10;99.90;;;;;;5074291;28;20044;-74
2021/12/31 02:10:26;;;;;;;3.65;1.00;;;13.10;99.90;;;;;;5055547;28;20179;-79
2021/12/31 02:12:53;;;;;;;7.53;1.30;;;13.10;99.90;;;;;;5065057;28;20488;-79
2021/12/31 02:15:20;;;;;;;8.75;1.25;;;13.00;99.90;;;;;;5055217;28;20498;-73
2021/12/31 02:17:48;;;;;;;6.82;1.60;;;13.00;99.90;;;;;;5073895;28;20131;-77
2021/12/31 02:20:15;;;;;;;5.93;1.38;;;13.00;99.90;;;;;;5054333;28;20036;-77
2021/12/31 02:22:54;;;;;;;5.22;1.52;;;13.00;99.90;;;;;;5068611;28;20036;-78
2021/12/31 02:25:22;;;;;;;8.88;2.03;;;13.10;99.90;;;;;;5074320;28;20506;-78
2021/12/31 02:27:48;;;;;;;4.75;1.50;;;13.10;99.90;;;;;;5058706;28;20109;-78
2021/12/31 02:30:14;;;;;;;6.22;1.38;;;13.00;99.90;;;;;;5057308;28;20054;-78
2021/12/31 02:32:40;;;;;;;4.72;1.60;;;13.10;99.90;;;;;;5075020;28;20036;-78
2021/12/31 02:35:09;;;;;;;6.60;2.08;;;13.00;99.90;;;;;;5057398;28;20040;-78
2021/12/31 02:37:35;;;;;;;6.20;1.85;;;13.10;99.90;;;;;;5057860;28;20044;-77
2021/12/31 02:40:08;;;;;;;7.70;2.10;;;13.00;99.90;;;;;;5057950;28;20036;-78
2021/12/31 02:42:33;;;;;;;5.40;2.22;;;13.00;99.90;;;;;;5054183;28;20037;-77
2021/12/31 02:44:59;;;;;;;5.07;2.17;;;13.00;99.90;;;;;;5052331;28;20051;-77
2021/12/31 02:47:25;;;;;;;6.38;2.40;;;13.00;99.90;;;;;;5074041;28;20393;-77
2021/12/31 02:49:51;;;;;;;4.78;2.38;;;13.00;99.90;;;;;;5057374;28;20056;-77
2021/12/31 02:52:17;;;;;;;7.10;2.90;;;13.00;99.90;;;;;;5073249;28;20139;-77
2021/12/31 02:54:47;;;;;;;4.63;2.53;;;13.00;99.90;;;;;;5040027;28;20045;-78
2021/12/31 02:57:14;;;;;;;7.22;3.10;;;13.00;99.90;;;;;;5054747;28;20112;-78
2021/12/31 02:59:41;;;;;;;5.90;2.58;;;13.00;99.90;;;;;;5057872;28;20115;-75
2021/12/31 03:02:07;;;;;;;7.85;3.08;;;13.10;99.90;;;;;;5074206;28;20527;-75
2021/12/31 03:04:38;;;;;;;5.28;2.45;;;13.00;99.90;;;;;;5073129;28;20089;-75
2021/12/31 03:07:06;;;;;;;7.22;3.22;;;13.10;99.90;;;;;;5057542;28;20483;-75
2021/12/31 03:09:34;;;;;;;5.25;3.58;;;13.10;99.90;;;;;;5074420;28;20496;-75
2021/12/31 03:12:00;;;;;;;6.15;3.10;;;13.10;99.90;;;;;;5073168;28;20086;-75
2021/12/31 03:14:28;;;;;;;7.95;2.72;;;13.10;99.90;;;;;;5073807;28;20123;-74
2021/12/31 03:16:53;;;;;;;5.78;2.83;;;13.10;99.90;;;;;;5073412;28;20084;-76
2021/12/31 03:19:20;;;;;;;6.30;2.65;;;13.10;99.90;;;;;;5073293;28;20052;-75
2021/12/31 03:21:47;;;;;;;5.65;2.42;;;13.10;99.90;;;;;;5073303;28;20059;-75
2021/12/31 03:24:13;;;;;;;4.35;2.65;;;13.20;99.90;;;;;;5073332;28;20499;-76
2021/12/31 03:26:39;;;;;;;6.35;2.50;;;13.20;99.90;;;;;;5073336;28;20484;-74
2021/12/31 03:29:04;;;;;;;7.13;2.65;;;13.20;99.90;;;;;;5057377;28;20040;-74
2021/12/31 03:31:30;;;;;;;5.93;2.47;;;13.20;99.90;;;;;;5073297;28;20063;-74
2021/12/31 03:33:56;;;;;;;4.13;1.98;;;13.20;99.90;;;;;;5073280;28;20046;-77
2021/12/31 03:36:21;;;;;;;5.72;2.85;;;13.20;99.90;;;;;;5073646;28;20046;-75
2021/12/31 03:38:47;;;;;;;6.63;2.30;;;13.20;99.90;;;;;;5072373;28;20403;-77
2021/12/31 03:41:13;;;;;;;7.50;2.95;;;13.20;99.90;;;;;;5073787;28;20081;-76
2021/12/31 03:43:38;;;;;;;3.72;1.83;;;13.20;99.90;;;;;;5073310;28;20390;-77
2021/12/31 03:46:04;;;;;;;6.97;2.38;;;13.20;99.90;;;;;;5056860;28;20048;-77
2021/12/31 03:48:30;;;;;;;4.63;2.78;;;13.10;99.90;;;;;;5072787;28;20126;-76
2021/12/31 03:50:55;;;;;;;6.47;3.00;;;13.20;99.90;;;;;;5072785;28;20048;-75
2021/12/31 03:53:21;;;;;;;6.80;3.13;;;13.10;99.90;;;;;;5055602;28;20044;-75
2021/12/31 03:55:47;;;;;;;5.70;2.70;;;13.10;99.90;;;;;;5073160;28;20048;-76
2021/12/31 03:58:13;;;;;;;7.22;3.17;;;13.20;99.90;;;;;;5054657;28;20099;-77
2021/12/31 04:00:39;;;;;;;4.38;2.97;;;13.10;99.90;;;;;;5091133;28;20123;-77
2021/12/31 04:03:10;;;;;;;7.43;3.63;;;13.10;99.90;;;;;;5073543;28;20452;-75
2021/12/31 04:05:37;;;;;;;6.13;3.13;;;13.10;99.90;;;;;;5054055;28;20048;-76
2021/12/31 04:08:04;;;;;;;6.75;3.75;;;13.10;99.90;;;;;;5059987;28;20044;-77
2021/12/31 04:10:30;;;;;;;9.10;3.78;;;13.10;99.90;;;;;;5072975;28;20059;-76
2021/12/31 04:12:55;;;;;;;4.90;3.83;;;13.10;99.90;;;;;;5073148;28;20397;-76
2021/12/31 04:15:22;;;;;;;7.05;3.50;;;13.10;99.90;;;;;;5054969;28;20047;-76
2021/12/31 04:17:48;;;;;;;6.00;3.72;;;13.10;99.90;;;;;;5055989;28;20062;-74
2021/12/31 04:20:24;;;;;;;8.20;3.80;;;13.00;99.90;;;;;;5056078;28;20048;-76
2021/12/31 04:22:54;;;;;;;6.63;3.60;;;13.10;99.90;;;;;;5072260;28;20051;-76
2021/12/31 04:25:22;;;;;;;3.97;3.42;;;13.00;99.90;;;;;;5073099;28;20044;-76
2021/12/31 04:27:48;;;;;;;6.07;3.10;;;13.00;99.90;;;;;;5055571;28;20094;-73
2021/12/31 04:30:14;;;;;;;6.70;3.80;;;13.00;99.90;;;;;;5069485;28;20040;-77
2021/12/31 04:32:40;;;;;;;6.38;3.17;;;13.00;99.90;;;;;;5056352;28;20040;-77
2021/12/31 04:35:07;;;;;;;5.93;3.22;;;13.00;99.90;;;;;;5072621;28;20108;-77
2021/12/31 04:37:33;;;;;;;5.93;3.08;;;13.00;99.90;;;;;;5072730;28;20044;-77
2021/12/31 04:39:59;;;;;;;7.22;3.08;;;13.00;99.90;;;;;;5055818;28;20100;-73
2021/12/31 04:42:24;;;;;;;6.32;2.83;;;13.00;99.90;;;;;;5055505;28;20118;-75
2021/12/31 04:44:50;;;;;;;7.38;2.85;;;13.00;99.90;;;;;;5072645;28;20071;-76
2021/12/31 04:47:15;;;;;;;7.85;2.45;;;13.00;99.90;;;;;;5071186;28;20039;-77
2021/12/31 04:49:41;;;;;;;4.18;2.40;;;13.00;99.90;;;;;;5072121;28;20143;-76
2021/12/31 04:52:07;;;;;;;4.25;2.17;;;13.00;99.90;;;;;;5072511;28;20044;-76
2021/12/31 04:54:32;;;;;;;7.43;2.60;;;13.00;99.90;;;;;;5072794;28;20044;-76
2021/12/31 04:56:59;;;;;;;5.30;1.75;;;13.00;99.90;;;;;;5054803;28;20036;-78
2021/12/31 04:59:25;;;;;;;7.93;2.33;;;13.00;99.90;;;;;;5072916;28;20050;-74
2021/12/31 05:01:51;;;;;;;5.50;1.80;;;13.00;99.90;;;;;;5072263;28;20033;-74
2021/12/31 05:04:17;;;;;;;4.68;1.58;;;13.00;99.90;;;;;;5072083;28;20067;-74
2021/12/31 05:06:43;;;;;;;7.38;1.80;;;13.00;99.90;;;;;;5055355;28;20044;-76
2021/12/31 05:09:10;;;;;;;7.72;1.77;;;13.00;99.90;;;;;;5073009;28;20044;-76
2021/12/31 05:11:36;;;;;;;4.35;1.40;;;13.00;99.90;;;;;;5071862;28;20044;-77
2021/12/31 05:14:03;;;;;;;4.88;1.33;;;13.00;99.90;;;;;;5055568;28;20098;-76
2021/12/31 05:16:30;;;;;;;3.67;1.40;;;13.10;99.90;;;;;;5052397;28;20412;-73
2021/12/31 05:18:55;;;;;;;4.70;1.10;;;13.10;99.90;;;;;;5054624;28;20051;-77
2021/12/31 05:21:21;;;;;;;7.18;1.40;;;13.10;99.90;;;;;;5056372;28;20047;-75
2021/12/31 05:23:46;;;;;;;4.55;1.50;;;13.10;99.90;;;;;;5071708;28;20060;-77
2021/12/31 05:26:12;;;;;;;3.55;1.30;;;13.00;99.90;;;;;;5072232;28;20090;-76
2021/12/31 05:28:39;;;;;;;5.65;1.23;;;13.10;99.90;;;;;;5072097;28;20492;-73
2021/12/31 05:31:05;;;;;;;4.82;1.42;;;13.00;99.90;;;;;;5072212;28;20036;-76
2021/12/31 05:33:30;;;;;;;6.90;1.05;;;13.00;99.90;;;;;;5055239;28;20048;-75
2021/12/31 05:35:59;;;;;;;3.78;1.08;;;13.00;99.90;;;;;;5072146;28;20761;-75
2021/12/31 05:38:25;;;;;;;5.80;1.13;;;13.00;99.90;;;;;;5071890;28;20552;-75
2021/12/31 05:40:51;;;;;;;5.70;0.82;;;12.90;99.90;;;;;;5059304;28;20155;-75
2021/12/31 05:43:16;;;;;;;2.97;0.80;;;12.90;99.90;;;;;;5072182;28;20496;-74
2021/12/31 05:45:42;;;;;;;3.92;0.93;;;12.90;99.90;;;;;;5079728;28;20051;-75
2021/12/31 05:48:07;;;;;;;5.28;0.90;;;12.90;99.90;;;;;;5075096;28;20044;-75
2021/12/31 05:50:33;;;;;;;3.63;1.20;;;12.90;99.90;;;;;;5075479;28;20051;-74
2021/12/31 05:53:00;;;;;;;2.63;1.00;;;12.90;99.90;;;;;;5074572;28;20063;-75
2021/12/31 05:55:27;;;;;;;3.58;0.60;;;12.80;99.90;;;;;;5055622;28;20442;-75
2021/12/31 05:57:55;;;;;;;2.58;0.80;;;12.80;99.90;;;;;;5039216;28;20041;-75
2021/12/31 06:00:21;;;;;;;2.15;0.70;;;12.80;99.90;;;;;;5057688;28;20473;-75
2021/12/31 06:02:47;;;;;;;6.68;1.15;;;12.70;99.90;;;;;;5058641;28;20052;-75
2021/12/31 06:05:13;;;;;;;3.55;0.88;;;12.70;99.90;;;;;;5058817;28;20036;-74
2021/12/31 06:07:39;;;;;;;4.40;0.90;;;12.70;99.90;;;;;;5074888;28;20498;-72
2021/12/31 06:10:05;;;;;;;5.10;1.10;;;12.70;99.90;;;;;;5075812;28;20040;-73
2021/12/31 06:12:31;;;;;;;2.72;0.70;;;12.60;99.90;;;;;;5075143;28;20048;-72
2021/12/31 06:14:59;;;;;;;2.85;0.60;;;12.60;99.90;;;;;;5074907;28;20487;-74
2021/12/31 06:17:27;;;;;;;3.08;0.57;;;12.60;99.90;;;;;;5067961;28;20162;-75
2021/12/31 06:19:53;;;;;;;4.47;0.75;;;12.70;99.90;;;;;;5075279;28;20055;-75
2021/12/31 06:22:23;;;;;;;2.10;0.65;;;12.60;99.90;;;;;;5074094;28;20036;-75
2021/12/31 06:24:52;;;;;;;4.45;0.77;;;12.60;99.90;;;;;;5075160;28;20066;-76
2021/12/31 06:27:19;;;;;;;3.50;0.70;;;12.60;99.90;;;;;;5074187;28;20361;-73
2021/12/31 06:29:44;;;;;;;3.25;0.68;;;12.60;99.90;;;;;;5075467;28;20087;-77
2021/12/31 06:32:10;;;;;;;5.97;1.00;;;12.60;99.90;;;;;;5057562;28;20063;-76
2021/12/31 06:34:36;;;;;;;3.30;0.75;;;12.60;99.90;;;;;;5074836;28;20067;-76
2021/12/31 06:37:02;;;;;;;2.05;0.43;;;12.60;99.90;;;;;;5074443;28;20126;-75
2021/12/31 06:39:28;;;;;;;3.25;0.50;;;12.50;99.90;;;;;;5075219;28;20135;-74
2021/12/31 06:41:54;;;;;;;3.00;0.65;;;12.50;99.90;;;;;;5072819;28;20043;-75
2021/12/31 06:44:19;;;;;;;2.78;0.65;;;12.50;99.90;;;;;;5074688;28;20044;-78
2021/12/31 06:46:45;;;;;;;5.80;0.60;;;12.50;99.90;;;;;;5057788;28;20139;-78
2021/12/31 06:49:11;;;;;;;2.95;0.75;;;12.40;99.90;;;;;;5074014;28;20101;-77
2021/12/31 06:51:36;;;;;;;2.03;0.70;;;12.40;99.90;;;;;;5073037;28;20385;-76
2021/12/31 06:54:02;;;;;;;4.20;0.77;;;12.40;99.90;;;;;;5074719;28;20052;-76
2021/12/31 06:56:28;;;;;;;4.20;1.00;;;12.40;99.90;;;;;;5073673;28;20040;-75
2021/12/31 06:58:53;;;;;;;3.17;0.77;;;12.40;99.90;;;;;;5057635;28;20154;-75
2021/12/31 07:01:19;;;;;;;3.17;0.75;;;12.30;99.90;;;;;;5073712;28;20032;-74
2021/12/31 07:03:45;;;;;;;7.70;0.57;;;12.30;99.90;;;;;;5057063;28;20075;-75
2021/12/31 07:06:11;;;;;;;6.13;0.82;;;12.30;99.90;;;;;;5047823;28;20044;-74
2021/12/31 07:08:38;;;;;;;5.55;1.00;;;12.40;99.90;;;;;;5057977;28;20440;-75
2021/12/31 07:11:04;;;;;;;2.53;0.80;;;12.30;99.90;;;;;;5073127;28;20430;-75
2021/12/31 07:13:30;;;;;;;1.80;0.65;;;12.30;99.90;;;;;;5070336;28;20044;-75
2021/12/31 07:15:56;;;;;;;4.45;1.05;;;12.30;99.90;;;;;;5071158;28;20669;-75
2021/12/31 07:18:22;;;;;;;3.50;0.95;;;12.30;99.90;;;;;;5073468;28;20094;-75
2021/12/31 07:20:49;;;;;;;4.30;0.68;;;12.30;99.90;;;;;;5073629;28;20044;-75
2021/12/31 07:23:20;;;;;;;2.20;0.60;;;12.30;99.90;;;;;;5091562;28;20044;-76
2021/12/31 07:25:45;;;;;;;3.17;0.90;;;12.30;99.90;;;;;;5091224;28;20076;-79
2021/12/31 07:28:13;;;;;;;2.15;0.77;;;12.30;99.90;;;;;;5073834;28;20112;-76
2021/12/31 07:30:39;;;;;;;4.47;0.98;;;12.30;99.90;;;;;;5072877;28;20051;-76
2021/12/31 07:33:05;;;;;;;2.20;0.90;;;12.40;99.90;;;;;;5057170;28;20105;-76
2021/12/31 07:35:31;;;;;;;2.28;0.70;;;12.30;99.90;;;;;;5072551;28;20073;-74
2021/12/31 07:37:58;;;;;;;3.95;0.95;;;12.40;99.90;;;;;;5071050;28;20197;-77
2021/12/31 07:40:33;;;;;;;3.28;0.88;;;12.40;99.90;;;;;;5072059;28;20511;-77
2021/12/31 07:42:58;;;;;;;3.40;0.95;;;12.40;99.90;;;;;;5065471;28;20063;-73
2021/12/31 07:45:24;;;;;;;2.90;0.85;;;12.40;99.90;;;;;;5055671;28;20400;-76
2021/12/31 07:47:49;;;;;;;3.58;0.98;;;12.40;99.90;;;;;;5043336;28;20079;-71
2021/12/31 07:50:15;;;;;;;3.05;0.60;;;12.40;99.90;;;;;;5052750;28;20103;-78
2021/12/31 07:52:41;;;;;;;3.20;0.90;;;12.40;99.90;;;;;;5003864;28;20048;-76
2021/12/31 07:55:07;;;;;;;3.78;0.63;;;12.50;99.90;;;;;;5052041;28;20055;-75
2021/12/31 07:57:33;;;;;;;3.85;1.10;;;12.40;99.90;;;;;;5052413;28;20044;-73
2021/12/31 07:59:58;;;;;;;3.67;1.00;;;12.40;99.90;;;;;;5050997;28;20476;-74
2021/12/31 08:02:24;;;;;;;2.17;0.73;;;12.50;99.90;;;;;;5032854;28;20079;-77
2021/12/31 08:04:50;;;;;;;2.13;0.60;;;12.60;99.90;;;;;;5050954;28;20036;-76
2021/12/31 08:07:15;;;;;;;3.78;0.85;;;12.60;99.90;;;;;;5050165;28;20048;-75
2021/12/31 08:09:41;;;;;;;3.50;0.70;;;12.70;99.90;;;;;;5036492;28;20044;-75
2021/12/31 08:12:07;;;;;;;3.78;0.75;;;12.70;99.90;;;;;;5036091;28;20048;-75
2021/12/31 08:14:32;;;;;;;2.55;0.65;;;12.70;99.90;;;;;;5060202;28;20095;-75
2021/12/31 08:16:58;;;;;;;3.58;1.05;;;12.80;99.90;;;;;;5048195;28;20044;-73
2021/12/31 08:19:23;;;;;;;4.57;0.65;;;12.80;99.90;;;;;;5049587;28;20047;-76
2021/12/31 08:21:49;;;;;;;3.20;0.70;;;12.80;99.90;;;;;;5026184;28;20044;-75
2021/12/31 08:24:15;;;;;;;4.25;0.90;;;12.80;99.90;;;;;;5040306;28;20043;-73
2021/12/31 08:26:41;;;;;;;2.80;0.73;;;12.80;99.60;;;;;;5052920;28;20062;-77
2021/12/31 08:29:12;;;;;;;5.43;0.90;;;12.80;99.70;;;;;;5052437;28;20072;-76
2021/12/31 08:31:39;;;;;;;3.53;0.70;;;12.90;99.50;;;;;;5030379;28;20048;-74
2021/12/31 08:34:07;;;;;;;3.40;0.65;;;12.90;99.50;;;;;;5052156;28;20144;-75
2021/12/31 08:36:33;;;;;;;3.60;0.65;;;12.90;99.40;;;;;;5036005;28;20040;-75
2021/12/31 08:38:59;;;;;;;4.22;1.02;;;12.90;99.30;;;;;;5052225;28;20048;-73
2021/12/31 08:41:25;;;;;;;3.47;0.80;;;12.90;99.30;;;;;;5052107;28;20037;-73
2021/12/31 08:43:50;;;;;;;4.05;0.60;;;12.90;99.10;;;;;;5051935;28;20052;-75
2021/12/31 08:46:16;;;;;;;3.50;0.98;;;13.00;99.00;;;;;;5052766;28;20444;-78
2021/12/31 08:48:42;;;;;;;3.50;0.98;;;12.90;98.90;;;;;;5051931;28;20060;-75
2021/12/31 08:51:07;;;;;;;3.90;0.80;;;12.90;98.80;;;;;;5073211;28;20051;-74
2021/12/31 08:53:33;;;;;;;4.13;0.75;;;12.90;98.80;;;;;;5071490;28;20523;-75
2021/12/31 08:55:59;;;;;;;4.10;0.75;;;12.90;98.90;;;;;;5052201;28;20053;-74
2021/12/31 08:58:24;;;;;;;3.25;0.73;;;12.90;98.70;;;;;;5052214;28;20536;-75
2021/12/31 09:00:50;;;;;;;2.40;0.68;;;12.90;98.80;;;;;;5053103;28;20040;-75
2021/12/31 09:03:15;;;;;;;3.25;0.60;;;12.90;98.80;;;;;;5035787;28;20041;-75
2021/12/31 09:05:41;;;;;;;3.50;0.90;;;12.90;98.90;;;;;;5054512;28;20040;-75
2021/12/31 09:08:07;;;;;;;2.45;0.77;;;12.90;98.90;;;;;;5072869;28;20070;-75
2021/12/31 09:10:33;;;;;;;2.88;0.82;;;12.80;98.90;;;;;;5051604;28;20041;-75
2021/12/31 09:12:58;;;;;;;3.72;0.70;;;12.90;98.90;;;;;;5032574;28;20056;-73
2021/12/31 09:15:24;;;;;;;3.42;1.00;;;12.80;99.00;;;;;;5068679;28;20040;-72
2021/12/31 09:17:50;;;;;;;3.15;0.75;;;12.90;99.00;;;;;;5075813;28;20499;-73
2021/12/31 09:20:16;;;;;;;2.33;0.90;;;12.90;99.10;;;;;;5056918;28;20624;-76
2021/12/31 09:22:42;;;;;;;2.60;1.08;;;12.90;98.90;;;;;;5056333;28;20105;-75
2021/12/31 09:25:08;;;;;;;4.07;1.00;;;12.90;99.10;;;;;;5040494;28;20036;-73
2021/12/31 09:27:33;;;;;;;3.65;1.23;;;12.90;98.90;;;;;;5039646;28;20496;-75
2021/12/31 09:29:59;;;;;;;3.25;0.80;;;13.00;98.90;;;;;;5067819;28;20044;-75
2021/12/31 09:32:25;;;;;;;3.47;0.90;;;13.00;99.00;;;;;;5059170;28;20545;-74
2021/12/31 09:34:51;;;;;;;3.33;0.50;;;13.00;99.00;;;;;;5064244;28;20553;-75
2021/12/31 09:37:18;;;;;;;4.32;1.13;;;13.00;98.90;;;;;;5055390;28;20133;-73
2021/12/31 09:39:44;;;;;;;3.33;0.73;;;13.00;98.70;;;;;;5065393;28;20044;-76
2021/12/31 09:42:10;;;;;;;2.75;0.80;;;13.00;98.80;;;;;;5076237;28;20051;-76
2021/12/31 09:44:37;;;;;;;2.95;0.98;;;13.00;99.20;;;;;;5056825;28;20079;-76
2021/12/31 09:47:09;;;;;;;2.88;0.98;;;13.00;98.80;;;;;;5056022;28;20037;-75
2021/12/31 09:49:39;;;;;;;5.20;1.02;;;13.00;98.80;;;;;;5056621;28;20056;-75
2021/12/31 09:52:08;;;;;;;1.92;0.80;;;13.00;98.80;;;;;;5075804;28;20114;-75
2021/12/31 09:54:34;;;;;;;3.33;0.88;;;13.00;98.90;;;;;;5075511;28;20090;-73
2021/12/31 09:57:02;;;;;;;3.55;0.70;;;12.90;98.90;;;;;;5075764;28;20461;-76
2021/12/31 09:59:28;;;;;;;2.75;0.73;;;13.00;98.70;;;;;;5075121;28;20408;-73
2021/12/31 10:01:53;;;;;;;4.95;1.10;;;12.90;98.90;;;;;;5076126;28;20044;-76
2021/12/31 10:04:20;;;;;;;2.58;0.88;;;12.90;98.90;;;;;;5093637;28;20492;-72
2021/12/31 10:07:05;;;;;;;2.75;0.77;;;12.90;98.90;;;;;;5075031;28;20070;-77
2021/12/31 10:09:31;;;;;;;2.75;0.70;;;12.90;98.70;;;;;;5075516;28;20559;-77
2021/12/31 10:11:57;;;;;;;2.40;0.88;;;13.00;98.90;;;;;;5075212;28;20059;-73
2021/12/31 10:14:36;;;;;;;3.85;1.00;;;13.00;99.00;;;;;;5057069;28;20101;-75
2021/12/31 10:17:02;;;;;;;4.53;1.10;;;13.00;98.90;;;;;;5058974;28;20048;-75
2021/12/31 10:19:28;;;;;;;2.38;1.00;;;12.90;98.90;;;;;;5052354;28;20451;-73
2021/12/31 10:21:56;;;;;;;4.60;1.23;;;13.00;98.90;;;;;;5055428;28;20045;-76
2021/12/31 10:24:35;;;;;;;4.43;0.93;;;12.90;98.80;;;;;;5045675;28;20122;-76
2021/12/31 10:27:14;;;;;;;3.80;1.00;;;13.00;98.90;;;;;;5075217;28;20055;-73
2021/12/31 10:29:53;;;;;;;5.35;1.15;;;12.90;98.80;;;;;;5065949;28;20043;-75
2021/12/31 10:32:20;;;;;;;3.75;1.20;;;12.90;98.80;;;;;;5061765;28;20048;-75
2021/12/31 10:34:46;;;;;;;2.42;1.05;;;12.90;98.80;;;;;;5075147;28;20436;-75
2021/12/31 10:37:25;;;;;;;3.75;1.00;;;12.90;98.70;;;;;;5074735;28;20044;-76
2021/12/31 10:39:57;;;;;;;5.35;1.40;;;12.90;98.80;;;;;;5074356;28;20072;-76
2021/12/31 10:42:28;;;;;;;4.85;2.25;;;13.00;99.00;;;;;;5073417;28;20051;-75
2021/12/31 10:44:54;;;;;;;5.97;2.65;;;12.90;99.10;;;;;;5074972;28;20044;-76
2021/12/31 10:47:23;;;;;;;7.20;3.22;;;12.80;99.30;;;;;;5073969;28;20055;-77
2021/12/31 10:50:03;;;;;;;6.47;3.17;;;12.80;99.50;;;;;;5057517;28;20044;-75
2021/12/31 10:52:40;;;;;;;5.03;2.75;;;12.70;99.70;;;;;;5074416;28;20051;-76
2021/12/31 10:55:29;;;;;;;7.03;2.95;;;12.60;99.90;;;;;;5092023;28;20275;-76
2021/12/31 10:58:03;;;;;;;5.60;2.63;;;12.70;99.90;;;;;;5094645;28;20044;-74
2021/12/31 11:00:32;;;;;;;5.40;2.22;;;12.70;99.90;;;;;;5077095;28;20218;-76
2021/12/31 11:02:59;;;;;;;6.88;2.83;;;12.60;99.90;;;;;;5077597;28;20046;-73
2021/12/31 11:05:26;;;;;;;6.38;2.17;;;12.60;99.90;;;;;;5113220;28;20032;-79
2021/12/31 11:07:52;;;;;;;5.65;1.70;;;12.60;99.90;;;;;;5077210;28;20383;-78
2021/12/31 11:10:25;;;;;;;6.63;1.88;;;12.60;99.90;;;;;;5077138;28;20484;-73
2021/12/31 11:12:51;;;;;;;3.08;1.88;;;12.50;99.90;;;;;;5093808;28;20052;-78
2021/12/31 11:15:17;;;;;;;8.13;2.72;;;12.50;99.90;;;;;;5094477;28;20407;-74
2021/12/31 11:17:43;;;;;;;7.22;4.10;;;12.50;99.90;;;;;;5094479;28;20044;-79
2021/12/31 11:20:11;;;;;;;5.68;2.47;;;12.50;99.90;;;;;;5076889;28;20027;-79
2021/12/31 11:22:37;;;;;;;7.45;2.30;;;12.50;99.90;;;;;;5092415;28;20049;-79
2021/12/31 11:25:26;;;;;;;6.57;2.42;;;12.50;99.90;;;;;;5094017;28;20047;-78
2021/12/31 11:27:54;;;;;;;4.75;2.10;;;12.60;99.90;;;;;;5093478;28;20057;-80
2021/12/31 11:30:32;;;;;;;5.45;2.33;;;12.50;99.90;;;;;;5077236;28;20031;-80
2021/12/31 11:33:05;;;;;;;6.90;3.63;;;12.50;99.90;;;;;;5077056;28;20044;-74
2021/12/31 11:35:31;;;;;;;5.47;4.20;;;12.50;99.90;;;;;;5088550;28;20054;-82
2021/12/31 11:37:57;;;;;;;3.65;2.58;;;12.50;99.90;;;;;;5077460;28;20048;-77
2021/12/31 11:40:36;;;;;;;5.55;2.30;;;12.50;99.90;;;;;;5074673;28;20507;-73
2021/12/31 11:43:28;;;;;;;3.13;1.70;;;12.60;99.90;;;;;;5093587;28;20365;-80
2021/12/31 11:46:12;;;;;;;6.70;2.25;;;12.60;99.90;;;;;;5081093;28;20048;-77
2021/12/31 11:51:12;;;;;;;5.25;2.30;;;12.60;99.90;;;;;;5082165;28;20050;-77
2021/12/31 11:53:56;;;;;;;9.10;3.80;;;12.60;99.90;;;;;;5093852;28;20040;-73
2021/12/31 11:59:11;;;;;;;4.63;2.70;;;12.70;99.90;;;;;;5073747;28;20066;-74
2021/12/31 12:01:36;;;;;;;7.30;2.20;;;12.60;99.90;;;;;;5059567;28;20251;-80
2021/12/31 12:04:22;;;;;;;5.32;1.95;;;12.60;99.90;;;;;;5091468;28;20130;-78
2021/12/31 12:06:54;;;;;;;6.75;3.35;;;12.60;99.90;;;;;;5093211;28;20453;-75
2021/12/31 12:09:43;;;;;;;5.22;3.22;;;12.60;99.90;;;;;;5093526;28;20039;-77
2021/12/31 12:12:21;;;;;;;8.95;3.40;;;12.60;99.90;;;;;;5075391;28;20126;-76
2021/12/31 12:14:47;;;;;;;9.18;4.90;;;12.60;99.90;;;;;;5076693;28;20035;-77
2021/12/31 12:17:16;;;;;;;11.15;6.95;;;12.60;99.90;;;;;;5085541;28;20399;-76
2021/12/31 12:19:50;;;;;;;11.20;6.57;;;12.60;99.90;;;;;;5070868;28;20368;-79
2021/12/31 12:22:26;;;;;;;10.25;5.97;;;12.60;99.90;;;;;;5061691;28;20085;-78
2021/12/31 12:24:52;;;;;;;11.30;5.00;;;12.60;99.90;;;;;;5075710;28;20050;-78
2021/12/31 12:27:21;;;;;;;7.55;3.97;;;12.50;99.90;;;;;;5091721;28;20077;-73
2021/12/31 12:29:48;;;;;;;7.75;3.78;;;12.40;99.90;;;;;;5093118;28;20128;-76
2021/12/31 12:32:16;;;;;;;7.65;3.42;;;12.30;99.90;;;;;;5074365;28;20483;-73
2021/12/31 12:34:41;;;;;;;8.18;4.50;;;12.20;99.90;;;;;;5093038;28;20407;-72
2021/12/31 12:37:07;;;;;;;9.13;4.28;;;12.20;99.90;;;;;;5075413;28;20047;-76
2021/12/31 12:39:34;;;;;;;11.48;5.20;;;12.10;99.90;;;;;;5092685;28;20047;-85
2021/12/31 12:41:59;;;;;;;8.27;4.57;;;12.10;99.90;;;;;;5092819;28;20132;-87
2021/12/31 12:44:25;;;;;;;7.72;5.05;;;12.10;99.90;;;;;;5077058;28;20178;-88
2021/12/31 12:46:59;;;;;;;7.93;4.03;;;12.00;99.90;;;;;;5075788;28;20096;-83
2021/12/31 12:49:26;;;;;;;7.95;3.50;;;12.10;99.90;;;;;;5096542;28;20051;-87
2021/12/31 12:51:54;;;;;;;6.43;3.42;;;12.10;99.90;;;;;;5086431;28;20055;-72
2021/12/31 12:54:24;;;;;;;8.43;3.92;;;12.10;99.90;;;;;;5096502;28;20039;-87
2021/12/31 12:56:51;;;;;;;7.20;3.47;;;12.10;99.90;;;;;;5087368;28;20043;-79